Aviation Digital Data Service (ADDS)

Output produced by METARs form (0945 UTC 01 August 2015)
found at http://aviationweather.gov/adds/metars/
 
KALB 010919Z 0109/0206 VRB03KT P6SM SCT070 BKN100 
     TEMPO 0110/0112 6SM -SHRA SCT050 BKN070 
     FM011200 21006KT P6SM SCT050 BKN100 
     FM011600 27010G18KT P6SM VCSH BKN050 BKN100 
     FM012200 29012G20KT P6SM SCT050 SCT100 
     FM020100 29010KT P6SM SCT050 SCT100 
     FM020400 27007KT P6SM SCT050